sensor_id;sensor_type;location;lat;lon;timestamp;P1;durP1;ratioP1;P2;durP2;ratioP2
79670;SDS011;69137;50.878;8.050;2023-08-06T00:01:26;5.85;;;3.20;;
79670;SDS011;69137;50.878;8.050;2023-08-06T00:03:51;5.75;;;4.07;;
79670;SDS011;69137;50.878;8.050;2023-08-06T00:06:17;4.38;;;3.45;;
79670;SDS011;69137;50.878;8.050;2023-08-06T00:08:42;5.03;;;2.65;;
79670;SDS011;69137;50.878;8.050;2023-08-06T00:11:07;5.43;;;3.58;;
79670;SDS011;69137;50.878;8.050;2023-08-06T00:13:33;5.00;;;3.03;;
79670;SDS011;69137;50.878;8.050;2023-08-06T00:16:11;4.30;;;3.28;;
79670;SDS011;69137;50.878;8.050;2023-08-06T00:18:37;4.63;;;2.88;;
79670;SDS011;69137;50.878;8.050;2023-08-06T00:21:03;6.97;;;3.35;;
79670;SDS011;69137;50.878;8.050;2023-08-06T00:23:28;5.55;;;3.05;;
79670;SDS011;69137;50.878;8.050;2023-08-06T00:25:54;3.78;;;2.63;;
79670;SDS011;69137;50.878;8.050;2023-08-06T00:28:19;4.60;;;2.80;;
79670;SDS011;69137;50.878;8.050;2023-08-06T00:30:45;4.13;;;3.20;;
79670;SDS011;69137;50.878;8.050;2023-08-06T00:33:10;3.97;;;3.30;;
79670;SDS011;69137;50.878;8.050;2023-08-06T00:35:35;3.53;;;2.42;;
79670;SDS011;69137;50.878;8.050;2023-08-06T00:38:01;3.53;;;2.67;;
79670;SDS011;69137;50.878;8.050;2023-08-06T00:40:26;4.80;;;3.15;;
79670;SDS011;69137;50.878;8.050;2023-08-06T00:42:54;3.95;;;3.13;;
79670;SDS011;69137;50.878;8.050;2023-08-06T00:45:19;4.43;;;2.90;;
79670;SDS011;69137;50.878;8.050;2023-08-06T00:47:44;5.20;;;3.13;;
79670;SDS011;69137;50.878;8.050;2023-08-06T00:50:11;8.35;;;3.25;;
79670;SDS011;69137;50.878;8.050;2023-08-06T00:52:36;6.78;;;3.30;;
79670;SDS011;69137;50.878;8.050;2023-08-06T00:55:02;5.85;;;3.30;;
79670;SDS011;69137;50.878;8.050;2023-08-06T00:57:28;4.28;;;2.95;;
79670;SDS011;69137;50.878;8.050;2023-08-06T00:59:54;5.88;;;3.40;;
79670;SDS011;69137;50.878;8.050;2023-08-06T01:02:20;6.05;;;3.38;;
79670;SDS011;69137;50.878;8.050;2023-08-06T01:04:45;3.72;;;3.08;;
79670;SDS011;69137;50.878;8.050;2023-08-06T01:12:40;4.72;;;3.80;;
79670;SDS011;69137;50.878;8.050;2023-08-06T01:15:31;4.53;;;3.67;;
79670;SDS011;69137;50.878;8.050;2023-08-06T01:18:01;5.03;;;4.07;;
79670;SDS011;69137;50.878;8.050;2023-08-06T01:20:28;5.80;;;4.10;;
79670;SDS011;69137;50.878;8.050;2023-08-06T01:22:54;4.70;;;3.63;;
79670;SDS011;69137;50.878;8.050;2023-08-06T01:25:19;4.53;;;3.72;;
79670;SDS011;69137;50.878;8.050;2023-08-06T01:27:48;5.60;;;3.90;;
79670;SDS011;69137;50.878;8.050;2023-08-06T01:30:33;4.65;;;4.15;;
79670;SDS011;69137;50.878;8.050;2023-08-06T01:33:03;6.13;;;3.85;;
79670;SDS011;69137;50.878;8.050;2023-08-06T01:35:30;6.32;;;3.80;;
79670;SDS011;69137;50.878;8.050;2023-08-06T01:37:59;5.25;;;4.07;;
79670;SDS011;69137;50.878;8.050;2023-08-06T01:40:25;5.78;;;3.67;;
79670;SDS011;69137;50.878;8.050;2023-08-06T01:42:53;13.30;;;4.50;;
79670;SDS011;69137;50.878;8.050;2023-08-06T01:45:19;5.07;;;3.85;;
79670;SDS011;69137;50.878;8.050;2023-08-06T01:47:44;4.97;;;3.90;;
79670;SDS011;69137;50.878;8.050;2023-08-06T01:50:09;7.28;;;3.50;;
79670;SDS011;69137;50.878;8.050;2023-08-06T01:52:35;4.78;;;3.65;;
79670;SDS011;69137;50.878;8.050;2023-08-06T01:55:00;5.18;;;3.88;;
79670;SDS011;69137;50.878;8.050;2023-08-06T01:57:26;4.38;;;3.50;;
79670;SDS011;69137;50.878;8.050;2023-08-06T01:59:51;5.25;;;3.83;;
79670;SDS011;69137;50.878;8.050;2023-08-06T02:02:16;4.45;;;3.45;;
79670;SDS011;69137;50.878;8.050;2023-08-06T02:04:42;4.93;;;3.60;;
79670;SDS011;69137;50.878;8.050;2023-08-06T02:07:07;5.72;;;3.88;;
79670;SDS011;69137;50.878;8.050;2023-08-06T02:09:33;6.45;;;3.63;;
79670;SDS011;69137;50.878;8.050;2023-08-06T02:12:00;8.43;;;3.58;;
79670;SDS011;69137;50.878;8.050;2023-08-06T02:14:25;4.53;;;3.33;;
79670;SDS011;69137;50.878;8.050;2023-08-06T02:16:51;5.90;;;3.35;;
79670;SDS011;69137;50.878;8.050;2023-08-06T02:19:16;4.10;;;3.17;;
79670;SDS011;69137;50.878;8.050;2023-08-06T02:21:42;5.05;;;3.38;;
79670;SDS011;69137;50.878;8.050;2023-08-06T02:24:07;4.25;;;3.33;;
79670;SDS011;69137;50.878;8.050;2023-08-06T02:26:33;4.97;;;3.83;;
79670;SDS011;69137;50.878;8.050;2023-08-06T02:28:58;5.57;;;3.60;;
79670;SDS011;69137;50.878;8.050;2023-08-06T02:31:23;7.03;;;4.00;;
79670;SDS011;69137;50.878;8.050;2023-08-06T02:33:49;5.10;;;3.78;;
79670;SDS011;69137;50.878;8.050;2023-08-06T02:36:14;4.13;;;3.28;;
79670;SDS011;69137;50.878;8.050;2023-08-06T02:38:40;4.10;;;3.28;;
79670;SDS011;69137;50.878;8.050;2023-08-06T02:41:05;4.93;;;3.72;;
79670;SDS011;69137;50.878;8.050;2023-08-06T02:43:31;4.75;;;4.10;;
79670;SDS011;69137;50.878;8.050;2023-08-06T02:45:59;6.38;;;3.53;;
79670;SDS011;69137;50.878;8.050;2023-08-06T02:48:25;4.78;;;3.83;;
79670;SDS011;69137;50.878;8.050;2023-08-06T02:50:51;5.65;;;4.32;;
79670;SDS011;69137;50.878;8.050;2023-08-06T02:53:16;5.75;;;4.13;;
79670;SDS011;69137;50.878;8.050;2023-08-06T02:55:47;6.40;;;3.67;;
79670;SDS011;69137;50.878;8.050;2023-08-06T02:58:14;4.78;;;3.47;;
79670;SDS011;69137;50.878;8.050;2023-08-06T03:00:40;4.53;;;3.85;;
79670;SDS011;69137;50.878;8.050;2023-08-06T03:03:05;5.15;;;3.38;;
79670;SDS011;69137;50.878;8.050;2023-08-06T03:05:31;6.22;;;3.90;;
79670;SDS011;69137;50.878;8.050;2023-08-06T03:07:56;4.95;;;3.80;;
79670;SDS011;69137;50.878;8.050;2023-08-06T03:10:22;7.75;;;3.80;;
79670;SDS011;69137;50.878;8.050;2023-08-06T03:12:47;6.18;;;3.80;;
79670;SDS011;69137;50.878;8.050;2023-08-06T03:15:12;6.38;;;3.85;;
79670;SDS011;69137;50.878;8.050;2023-08-06T03:17:38;4.40;;;3.38;;
79670;SDS011;69137;50.878;8.050;2023-08-06T03:20:04;8.57;;;3.75;;
79670;SDS011;69137;50.878;8.050;2023-08-06T03:22:29;6.40;;;3.78;;
79670;SDS011;69137;50.878;8.050;2023-08-06T03:24:55;4.68;;;3.40;;
79670;SDS011;69137;50.878;8.050;2023-08-06T03:27:20;6.22;;;4.00;;
79670;SDS011;69137;50.878;8.050;2023-08-06T03:29:48;4.90;;;3.75;;
79670;SDS011;69137;50.878;8.050;2023-08-06T03:32:15;5.70;;;3.13;;
79670;SDS011;69137;50.878;8.050;2023-08-06T03:34:40;6.38;;;3.97;;
79670;SDS011;69137;50.878;8.050;2023-08-06T03:37:05;5.05;;;3.47;;
79670;SDS011;69137;50.878;8.050;2023-08-06T03:39:31;7.95;;;3.78;;
79670;SDS011;69137;50.878;8.050;2023-08-06T03:41:56;5.90;;;3.25;;
79670;SDS011;69137;50.878;8.050;2023-08-06T03:44:22;4.75;;;4.03;;
79670;SDS011;69137;50.878;8.050;2023-08-06T03:46:47;4.50;;;3.55;;
79670;SDS011;69137;50.878;8.050;2023-08-06T03:49:12;4.40;;;3.60;;
79670;SDS011;69137;50.878;8.050;2023-08-06T03:51:38;6.97;;;3.63;;
79670;SDS011;69137;50.878;8.050;2023-08-06T03:54:03;5.93;;;3.67;;
79670;SDS011;69137;50.878;8.050;2023-08-06T03:56:29;6.10;;;3.65;;
79670;SDS011;69137;50.878;8.050;2023-08-06T03:58:54;4.13;;;3.45;;
79670;SDS011;69137;50.878;8.050;2023-08-06T04:01:19;4.63;;;3.33;;
79670;SDS011;69137;50.878;8.050;2023-08-06T04:03:45;3.95;;;2.97;;
79670;SDS011;69137;50.878;8.050;2023-08-06T04:06:10;6.32;;;3.72;;
79670;SDS011;69137;50.878;8.050;2023-08-06T04:08:36;5.70;;;3.10;;
79670;SDS011;69137;50.878;8.050;2023-08-06T04:11:01;3.80;;;2.97;;
79670;SDS011;69137;50.878;8.050;2023-08-06T04:13:27;4.80;;;3.08;;
79670;SDS011;69137;50.878;8.050;2023-08-06T04:15:52;4.57;;;3.53;;
79670;SDS011;69137;50.878;8.050;2023-08-06T04:18:18;5.47;;;3.50;;
79670;SDS011;69137;50.878;8.050;2023-08-06T04:20:44;4.28;;;3.17;;
79670;SDS011;69137;50.878;8.050;2023-08-06T04:23:10;7.05;;;3.33;;
79670;SDS011;69137;50.878;8.050;2023-08-06T04:25:36;4.00;;;3.00;;
79670;SDS011;69137;50.878;8.050;2023-08-06T04:28:01;5.78;;;3.55;;
79670;SDS011;69137;50.878;8.050;2023-08-06T04:30:26;3.70;;;2.88;;
79670;SDS011;69137;50.878;8.050;2023-08-06T04:32:52;3.72;;;3.00;;
79670;SDS011;69137;50.878;8.050;2023-08-06T04:35:17;5.63;;;4.28;;
79670;SDS011;69137;50.878;8.050;2023-08-06T04:37:43;6.05;;;3.40;;
79670;SDS011;69137;50.878;8.050;2023-08-06T04:40:08;5.97;;;2.78;;
79670;SDS011;69137;50.878;8.050;2023-08-06T04:42:34;5.53;;;3.40;;
79670;SDS011;69137;50.878;8.050;2023-08-06T04:45:01;3.95;;;2.80;;
79670;SDS011;69137;50.878;8.050;2023-08-06T04:47:27;6.68;;;2.95;;
79670;SDS011;69137;50.878;8.050;2023-08-06T04:49:52;4.57;;;3.00;;
79670;SDS011;69137;50.878;8.050;2023-08-06T04:52:18;7.55;;;2.97;;
79670;SDS011;69137;50.878;8.050;2023-08-06T04:54:44;4.22;;;3.13;;
79670;SDS011;69137;50.878;8.050;2023-08-06T04:57:09;4.55;;;3.10;;
79670;SDS011;69137;50.878;8.050;2023-08-06T04:59:35;6.57;;;3.05;;
79670;SDS011;69137;50.878;8.050;2023-08-06T05:02:00;4.78;;;2.88;;
79670;SDS011;69137;50.878;8.050;2023-08-06T05:04:26;5.63;;;3.17;;
79670;SDS011;69137;50.878;8.050;2023-08-06T05:06:52;3.85;;;2.85;;
79670;SDS011;69137;50.878;8.050;2023-08-06T05:09:18;5.80;;;2.88;;
79670;SDS011;69137;50.878;8.050;2023-08-06T05:11:43;10.57;;;5.00;;
79670;SDS011;69137;50.878;8.050;2023-08-06T05:14:09;6.10;;;3.45;;
79670;SDS011;69137;50.878;8.050;2023-08-06T05:16:34;5.20;;;3.03;;
79670;SDS011;69137;50.878;8.050;2023-08-06T05:18:59;5.90;;;3.28;;
79670;SDS011;69137;50.878;8.050;2023-08-06T05:21:25;6.45;;;3.10;;
79670;SDS011;69137;50.878;8.050;2023-08-06T05:23:50;3.85;;;3.13;;
79670;SDS011;69137;50.878;8.050;2023-08-06T05:26:16;4.30;;;3.40;;
79670;SDS011;69137;50.878;8.050;2023-08-06T05:28:43;6.07;;;3.25;;
79670;SDS011;69137;50.878;8.050;2023-08-06T05:31:09;5.57;;;3.40;;
79670;SDS011;69137;50.878;8.050;2023-08-06T05:33:35;4.30;;;3.30;;
79670;SDS011;69137;50.878;8.050;2023-08-06T05:36:00;5.82;;;3.00;;
79670;SDS011;69137;50.878;8.050;2023-08-06T05:38:26;3.22;;;2.63;;
79670;SDS011;69137;50.878;8.050;2023-08-06T05:40:51;4.22;;;2.75;;
79670;SDS011;69137;50.878;8.050;2023-08-06T05:43:17;5.07;;;2.58;;
79670;SDS011;69137;50.878;8.050;2023-08-06T05:45:45;6.40;;;2.47;;
79670;SDS011;69137;50.878;8.050;2023-08-06T05:48:11;4.03;;;2.80;;
79670;SDS011;69137;50.878;8.050;2023-08-06T05:50:37;3.65;;;2.63;;
79670;SDS011;69137;50.878;8.050;2023-08-06T05:53:02;6.82;;;3.10;;
79670;SDS011;69137;50.878;8.050;2023-08-06T05:55:28;8.32;;;3.45;;
79670;SDS011;69137;50.878;8.050;2023-08-06T05:57:53;6.60;;;3.03;;
79670;SDS011;69137;50.878;8.050;2023-08-06T06:00:20;3.83;;;2.90;;
79670;SDS011;69137;50.878;8.050;2023-08-06T06:02:46;4.40;;;2.70;;
79670;SDS011;69137;50.878;8.050;2023-08-06T06:05:12;3.58;;;2.83;;
79670;SDS011;69137;50.878;8.050;2023-08-06T06:07:37;6.03;;;2.95;;
79670;SDS011;69137;50.878;8.050;2023-08-06T06:10:03;3.63;;;2.33;;
79670;SDS011;69137;50.878;8.050;2023-08-06T06:12:28;3.15;;;2.22;;
79670;SDS011;69137;50.878;8.050;2023-08-06T06:14:54;2.80;;;2.17;;
79670;SDS011;69137;50.878;8.050;2023-08-06T06:17:19;5.20;;;2.08;;
79670;SDS011;69137;50.878;8.050;2023-08-06T06:19:44;3.08;;;1.80;;
79670;SDS011;69137;50.878;8.050;2023-08-06T06:22:10;2.70;;;1.80;;
79670;SDS011;69137;50.878;8.050;2023-08-06T06:24:35;2.90;;;2.10;;
79670;SDS011;69137;50.878;8.050;2023-08-06T06:27:01;5.43;;;1.80;;
79670;SDS011;69137;50.878;8.050;2023-08-06T06:29:26;2.50;;;1.83;;
79670;SDS011;69137;50.878;8.050;2023-08-06T06:31:52;3.90;;;2.17;;
79670;SDS011;69137;50.878;8.050;2023-08-06T06:34:17;3.28;;;1.98;;
79670;SDS011;69137;50.878;8.050;2023-08-06T06:36:43;2.75;;;2.15;;
79670;SDS011;69137;50.878;8.050;2023-08-06T06:39:08;2.95;;;2.15;;
79670;SDS011;69137;50.878;8.050;2023-08-06T06:41:33;4.18;;;2.20;;
79670;SDS011;69137;50.878;8.050;2023-08-06T06:43:59;4.78;;;2.25;;
79670;SDS011;69137;50.878;8.050;2023-08-06T06:46:24;2.40;;;1.60;;
79670;SDS011;69137;50.878;8.050;2023-08-06T06:48:50;3.15;;;1.70;;
79670;SDS011;69137;50.878;8.050;2023-08-06T06:51:15;3.15;;;1.70;;
79670;SDS011;69137;50.878;8.050;2023-08-06T06:53:40;3.78;;;1.70;;
79670;SDS011;69137;50.878;8.050;2023-08-06T06:56:06;4.63;;;1.58;;
79670;SDS011;69137;50.878;8.050;2023-08-06T06:58:32;3.50;;;1.60;;
79670;SDS011;69137;50.878;8.050;2023-08-06T07:00:57;1.90;;;1.23;;
79670;SDS011;69137;50.878;8.050;2023-08-06T07:03:23;1.77;;;1.30;;
79670;SDS011;69137;50.878;8.050;2023-08-06T07:05:49;2.08;;;1.40;;
79670;SDS011;69137;50.878;8.050;2023-08-06T07:08:15;1.40;;;1.00;;
79670;SDS011;69137;50.878;8.050;2023-08-06T07:10:41;4.88;;;2.30;;
79670;SDS011;69137;50.878;8.050;2023-08-06T07:13:08;2.50;;;1.25;;
79670;SDS011;69137;50.878;8.050;2023-08-06T07:15:34;2.55;;;1.40;;
79670;SDS011;69137;50.878;8.050;2023-08-06T07:17:59;2.33;;;1.20;;
79670;SDS011;69137;50.878;8.050;2023-08-06T07:20:26;2.08;;;1.05;;
79670;SDS011;69137;50.878;8.050;2023-08-06T07:25:19;1.13;;;0.77;;
79670;SDS011;69137;50.878;8.050;2023-08-06T07:27:45;1.20;;;0.80;;
79670;SDS011;69137;50.878;8.050;2023-08-06T07:30:10;1.92;;;0.80;;
79670;SDS011;69137;50.878;8.050;2023-08-06T07:32:36;1.08;;;0.90;;
79670;SDS011;69137;50.878;8.050;2023-08-06T07:35:01;1.17;;;0.80;;
79670;SDS011;69137;50.878;8.050;2023-08-06T07:37:27;0.50;;;0.50;;
79670;SDS011;69137;50.878;8.050;2023-08-06T07:39:56;1.35;;;0.90;;
79670;SDS011;69137;50.878;8.050;2023-08-06T07:42:22;1.40;;;0.95;;
79670;SDS011;69137;50.878;8.050;2023-08-06T07:44:54;1.02;;;0.80;;
79670;SDS011;69137;50.878;8.050;2023-08-06T07:47:21;0.95;;;0.70;;
79670;SDS011;69137;50.878;8.050;2023-08-06T07:49:46;1.65;;;0.88;;
79670;SDS011;69137;50.878;8.050;2023-08-06T07:52:12;1.08;;;0.80;;
79670;SDS011;69137;50.878;8.050;2023-08-06T07:54:37;0.88;;;0.80;;
79670;SDS011;69137;50.878;8.050;2023-08-06T07:57:03;1.55;;;0.70;;
79670;SDS011;69137;50.878;8.050;2023-08-06T07:59:28;0.95;;;0.70;;
79670;SDS011;69137;50.878;8.050;2023-08-06T08:01:54;1.38;;;0.73;;
79670;SDS011;69137;50.878;8.050;2023-08-06T08:04:19;0.65;;;0.65;;
79670;SDS011;69137;50.878;8.050;2023-08-06T08:06:46;0.57;;;0.57;;
79670;SDS011;69137;50.878;8.050;2023-08-06T08:09:12;1.02;;;0.70;;
79670;SDS011;69137;50.878;8.050;2023-08-06T08:11:38;0.70;;;0.70;;
79670;SDS011;69137;50.878;8.050;2023-08-06T08:14:04;0.85;;;0.52;;
79670;SDS011;69137;50.878;8.050;2023-08-06T08:16:29;0.65;;;0.60;;
79670;SDS011;69137;50.878;8.050;2023-08-06T08:18:54;0.57;;;0.50;;
79670;SDS011;69137;50.878;8.050;2023-08-06T08:21:20;0.60;;;0.57;;
79670;SDS011;69137;50.878;8.050;2023-08-06T08:23:45;1.13;;;0.88;;
79670;SDS011;69137;50.878;8.050;2023-08-06T08:26:11;1.35;;;0.95;;
79670;SDS011;69137;50.878;8.050;2023-08-06T08:28:38;0.60;;;0.60;;
79670;SDS011;69137;50.878;8.050;2023-08-06T08:31:07;0.90;;;0.73;;
79670;SDS011;69137;50.878;8.050;2023-08-06T08:33:34;0.43;;;0.43;;
79670;SDS011;69137;50.878;8.050;2023-08-06T08:35:59;1.05;;;0.40;;
79670;SDS011;69137;50.878;8.050;2023-08-06T08:38:25;0.52;;;0.52;;
79670;SDS011;69137;50.878;8.050;2023-08-06T08:40:51;2.30;;;0.45;;
79670;SDS011;69137;50.878;8.050;2023-08-06T08:43:19;0.73;;;0.63;;
79670;SDS011;69137;50.878;8.050;2023-08-06T08:48:14;0.63;;;0.63;;
79670;SDS011;69137;50.878;8.050;2023-08-06T08:50:42;2.08;;;1.13;;
79670;SDS011;69137;50.878;8.050;2023-08-06T08:53:12;0.70;;;0.60;;
79670;SDS011;69137;50.878;8.050;2023-08-06T08:55:40;1.38;;;1.00;;
79670;SDS011;69137;50.878;8.050;2023-08-06T08:58:07;2.50;;;1.27;;
79670;SDS011;69137;50.878;8.050;2023-08-06T09:00:33;1.38;;;1.08;;
79670;SDS011;69137;50.878;8.050;2023-08-06T09:03:00;1.17;;;1.05;;
79670;SDS011;69137;50.878;8.050;2023-08-06T09:05:28;2.58;;;1.42;;
79670;SDS011;69137;50.878;8.050;2023-08-06T09:07:56;1.55;;;1.10;;
79670;SDS011;69137;50.878;8.050;2023-08-06T09:10:29;1.92;;;1.33;;
79670;SDS011;69137;50.878;8.050;2023-08-06T09:12:55;3.58;;;1.33;;
79670;SDS011;69137;50.878;8.050;2023-08-06T09:15:25;6.00;;;1.30;;
79670;SDS011;69137;50.878;8.050;2023-08-06T09:17:52;1.48;;;1.08;;
79670;SDS011;69137;50.878;8.050;2023-08-06T09:20:18;2.00;;;1.40;;
79670;SDS011;69137;50.878;8.050;2023-08-06T09:22:44;2.40;;;1.30;;
79670;SDS011;69137;50.878;8.050;2023-08-06T09:25:10;2.45;;;1.42;;
79670;SDS011;69137;50.878;8.050;2023-08-06T09:27:38;1.58;;;1.15;;
79670;SDS011;69137;50.878;8.050;2023-08-06T09:30:04;2.97;;;1.08;;
79670;SDS011;69137;50.878;8.050;2023-08-06T09:32:47;1.60;;;1.10;;
79670;SDS011;69137;50.878;8.050;2023-08-06T09:35:18;1.45;;;1.10;;
79670;SDS011;69137;50.878;8.050;2023-08-06T09:37:44;2.15;;;1.52;;
79670;SDS011;69137;50.878;8.050;2023-08-06T09:42:51;2.33;;;1.08;;
79670;SDS011;69137;50.878;8.050;2023-08-06T09:45:16;1.40;;;1.10;;
79670;SDS011;69137;50.878;8.050;2023-08-06T09:47:42;1.67;;;1.10;;
79670;SDS011;69137;50.878;8.050;2023-08-06T09:50:20;1.30;;;1.00;;
79670;SDS011;69137;50.878;8.050;2023-08-06T09:52:48;1.75;;;1.10;;
79670;SDS011;69137;50.878;8.050;2023-08-06T09:55:17;1.75;;;1.20;;
79670;SDS011;69137;50.878;8.050;2023-08-06T09:57:43;1.55;;;1.20;;
79670;SDS011;69137;50.878;8.050;2023-08-06T10:00:09;1.45;;;1.10;;
79670;SDS011;69137;50.878;8.050;2023-08-06T10:02:39;1.30;;;1.05;;
79670;SDS011;69137;50.878;8.050;2023-08-06T10:05:06;1.80;;;1.30;;
79670;SDS011;69137;50.878;8.050;2023-08-06T10:07:33;1.95;;;1.20;;
79670;SDS011;69137;50.878;8.050;2023-08-06T10:09:59;1.80;;;1.20;;
79670;SDS011;69137;50.878;8.050;2023-08-06T10:12:25;1.90;;;1.38;;
79670;SDS011;69137;50.878;8.050;2023-08-06T10:14:55;1.50;;;1.20;;
79670;SDS011;69137;50.878;8.050;2023-08-06T10:19:49;1.67;;;1.40;;
79670;SDS011;69137;50.878;8.050;2023-08-06T10:22:17;1.85;;;1.30;;
79670;SDS011;69137;50.878;8.050;2023-08-06T10:24:56;1.55;;;1.23;;
79670;SDS011;69137;50.878;8.050;2023-08-06T10:27:32;2.08;;;1.50;;
79670;SDS011;69137;50.878;8.050;2023-08-06T10:30:47;2.05;;;1.55;;
79670;SDS011;69137;50.878;8.050;2023-08-06T10:33:09;1.85;;;1.45;;
79670;SDS011;69137;50.878;8.050;2023-08-06T10:38:12;1.75;;;1.50;;
79670;SDS011;69137;50.878;8.050;2023-08-06T10:40:42;2.30;;;1.50;;
79670;SDS011;69137;50.878;8.050;2023-08-06T10:43:32;1.70;;;1.40;;
79670;SDS011;69137;50.878;8.050;2023-08-06T10:46:00;1.90;;;1.50;;
79670;SDS011;69137;50.878;8.050;2023-08-06T10:50:59;2.30;;;1.55;;
79670;SDS011;69137;50.878;8.050;2023-08-06T10:53:25;1.95;;;1.55;;
79670;SDS011;69137;50.878;8.050;2023-08-06T10:55:50;1.58;;;1.35;;
79670;SDS011;69137;50.878;8.050;2023-08-06T10:58:16;2.30;;;1.60;;
79670;SDS011;69137;50.878;8.050;2023-08-06T11:00:42;2.55;;;1.63;;
79670;SDS011;69137;50.878;8.050;2023-08-06T11:03:07;2.20;;;1.70;;
79670;SDS011;69137;50.878;8.050;2023-08-06T11:05:33;2.33;;;1.92;;
79670;SDS011;69137;50.878;8.050;2023-08-06T11:07:59;2.10;;;1.63;;
79670;SDS011;69137;50.878;8.050;2023-08-06T11:10:24;1.83;;;1.45;;
79670;SDS011;69137;50.878;8.050;2023-08-06T11:12:50;1.90;;;1.60;;
79670;SDS011;69137;50.878;8.050;2023-08-06T11:15:15;2.13;;;1.70;;
79670;SDS011;69137;50.878;8.050;2023-08-06T11:17:41;1.90;;;1.60;;
79670;SDS011;69137;50.878;8.050;2023-08-06T11:20:07;1.98;;;1.40;;
79670;SDS011;69137;50.878;8.050;2023-08-06T11:22:33;2.00;;;1.65;;
79670;SDS011;69137;50.878;8.050;2023-08-06T11:25:01;2.00;;;1.58;;
79670;SDS011;69137;50.878;8.050;2023-08-06T11:27:27;1.83;;;1.60;;
79670;SDS011;69137;50.878;8.050;2023-08-06T11:29:55;2.03;;;1.83;;
79670;SDS011;69137;50.878;8.050;2023-08-06T11:32:21;2.40;;;1.83;;
79670;SDS011;69137;50.878;8.050;2023-08-06T11:34:46;2.30;;;1.73;;
79670;SDS011;69137;50.878;8.050;2023-08-06T11:37:12;2.70;;;2.20;;
79670;SDS011;69137;50.878;8.050;2023-08-06T11:39:37;4.43;;;2.03;;
79670;SDS011;69137;50.878;8.050;2023-08-06T11:42:06;2.10;;;1.65;;
79670;SDS011;69137;50.878;8.050;2023-08-06T11:44:33;2.03;;;1.63;;
79670;SDS011;69137;50.878;8.050;2023-08-06T11:47:00;2.25;;;1.88;;
79670;SDS011;69137;50.878;8.050;2023-08-06T11:49:37;2.22;;;1.80;;
79670;SDS011;69137;50.878;8.050;2023-08-06T11:52:31;2.15;;;1.63;;
79670;SDS011;69137;50.878;8.050;2023-08-06T11:55:04;2.28;;;1.70;;
79670;SDS011;69137;50.878;8.050;2023-08-06T11:57:33;2.75;;;2.10;;
79670;SDS011;69137;50.878;8.050;2023-08-06T12:00:02;3.13;;;1.80;;
79670;SDS011;69137;50.878;8.050;2023-08-06T12:02:33;2.65;;;1.88;;
79670;SDS011;69137;50.878;8.050;2023-08-06T12:05:10;3.55;;;2.00;;
79670;SDS011;69137;50.878;8.050;2023-08-06T12:07:43;2.47;;;1.98;;
79670;SDS011;69137;50.878;8.050;2023-08-06T12:10:11;2.53;;;1.83;;
79670;SDS011;69137;50.878;8.050;2023-08-06T12:12:37;2.00;;;1.58;;
79670;SDS011;69137;50.878;8.050;2023-08-06T12:15:04;2.53;;;1.60;;
79670;SDS011;69137;50.878;8.050;2023-08-06T12:17:31;5.28;;;1.50;;
79670;SDS011;69137;50.878;8.050;2023-08-06T12:19:56;4.93;;;1.88;;
79670;SDS011;69137;50.878;8.050;2023-08-06T12:22:22;1.23;;;0.90;;
79670;SDS011;69137;50.878;8.050;2023-08-06T12:24:47;1.38;;;0.90;;
79670;SDS011;69137;50.878;8.050;2023-08-06T12:27:13;4.43;;;1.45;;
79670;SDS011;69137;50.878;8.050;2023-08-06T12:29:44;3.20;;;0.93;;
79670;SDS011;69137;50.878;8.050;2023-08-06T12:32:10;3.13;;;1.10;;
79670;SDS011;69137;50.878;8.050;2023-08-06T12:34:37;3.05;;;1.02;;
79670;SDS011;69137;50.878;8.050;2023-08-06T12:37:06;2.75;;;1.00;;
79670;SDS011;69137;50.878;8.050;2023-08-06T12:39:32;0.75;;;0.63;;
79670;SDS011;69137;50.878;8.050;2023-08-06T12:42:02;2.42;;;1.10;;
79670;SDS011;69137;50.878;8.050;2023-08-06T12:44:30;1.10;;;1.00;;
79670;SDS011;69137;50.878;8.050;2023-08-06T12:46:56;1.83;;;1.20;;
79670;SDS011;69137;50.878;8.050;2023-08-06T12:49:22;0.55;;;0.55;;
79670;SDS011;69137;50.878;8.050;2023-08-06T12:51:49;1.08;;;0.93;;
79670;SDS011;69137;50.878;8.050;2023-08-06T12:54:21;3.20;;;1.05;;
79670;SDS011;69137;50.878;8.050;2023-08-06T12:56:46;0.93;;;0.80;;
79670;SDS011;69137;50.878;8.050;2023-08-06T12:59:13;2.35;;;1.20;;
79670;SDS011;69137;50.878;8.050;2023-08-06T13:01:40;1.35;;;1.08;;
79670;SDS011;69137;50.878;8.050;2023-08-06T13:04:06;2.67;;;1.20;;
79670;SDS011;69137;50.878;8.050;2023-08-06T13:06:31;1.83;;;1.25;;
79670;SDS011;69137;50.878;8.050;2023-08-06T13:09:04;1.25;;;1.10;;
79670;SDS011;69137;50.878;8.050;2023-08-06T13:11:31;1.95;;;1.50;;
79670;SDS011;69137;50.878;8.050;2023-08-06T13:13:59;2.97;;;1.88;;
79670;SDS011;69137;50.878;8.050;2023-08-06T13:16:28;1.67;;;1.30;;
79670;SDS011;69137;50.878;8.050;2023-08-06T13:18:54;4.00;;;1.20;;
79670;SDS011;69137;50.878;8.050;2023-08-06T13:21:19;2.00;;;1.50;;
79670;SDS011;69137;50.878;8.050;2023-08-06T13:23:45;2.58;;;1.50;;
79670;SDS011;69137;50.878;8.050;2023-08-06T13:26:10;2.30;;;1.55;;
79670;SDS011;69137;50.878;8.050;2023-08-06T13:28:35;1.80;;;1.30;;
79670;SDS011;69137;50.878;8.050;2023-08-06T13:31:01;2.10;;;1.50;;
79670;SDS011;69137;50.878;8.050;2023-08-06T13:33:28;2.60;;;1.70;;
79670;SDS011;69137;50.878;8.050;2023-08-06T13:35:53;2.30;;;1.80;;
79670;SDS011;69137;50.878;8.050;2023-08-06T13:38:18;2.45;;;1.90;;
79670;SDS011;69137;50.878;8.050;2023-08-06T13:40:44;1.88;;;1.58;;
79670;SDS011;69137;50.878;8.050;2023-08-06T13:43:11;4.72;;;1.90;;
79670;SDS011;69137;50.878;8.050;2023-08-06T13:45:36;2.78;;;1.58;;
79670;SDS011;69137;50.878;8.050;2023-08-06T13:48:03;2.20;;;1.65;;
79670;SDS011;69137;50.878;8.050;2023-08-06T13:50:29;1.90;;;1.33;;
79670;SDS011;69137;50.878;8.050;2023-08-06T13:52:54;2.78;;;1.73;;
79670;SDS011;69137;50.878;8.050;2023-08-06T13:55:21;2.33;;;1.63;;
79670;SDS011;69137;50.878;8.050;2023-08-06T13:57:46;2.83;;;1.67;;
79670;SDS011;69137;50.878;8.050;2023-08-06T14:00:12;4.00;;;1.83;;
79670;SDS011;69137;50.878;8.050;2023-08-06T14:02:37;2.17;;;1.60;;
79670;SDS011;69137;50.878;8.050;2023-08-06T14:05:03;2.20;;;1.63;;
79670;SDS011;69137;50.878;8.050;2023-08-06T14:07:29;2.70;;;1.70;;
79670;SDS011;69137;50.878;8.050;2023-08-06T14:09:54;1.85;;;1.40;;
79670;SDS011;69137;50.878;8.050;2023-08-06T14:12:22;2.22;;;1.60;;
79670;SDS011;69137;50.878;8.050;2023-08-06T14:14:47;2.53;;;1.60;;
79670;SDS011;69137;50.878;8.050;2023-08-06T14:17:12;2.30;;;1.60;;
79670;SDS011;69137;50.878;8.050;2023-08-06T14:19:38;2.70;;;1.83;;
79670;SDS011;69137;50.878;8.050;2023-08-06T14:22:03;4.60;;;2.33;;
79670;SDS011;69137;50.878;8.050;2023-08-06T14:24:29;2.50;;;1.63;;
79670;SDS011;69137;50.878;8.050;2023-08-06T14:26:54;3.13;;;1.65;;
79670;SDS011;69137;50.878;8.050;2023-08-06T14:29:19;3.45;;;2.10;;
79670;SDS011;69137;50.878;8.050;2023-08-06T14:31:45;3.90;;;2.47;;
79670;SDS011;69137;50.878;8.050;2023-08-06T14:34:10;2.70;;;1.92;;
79670;SDS011;69137;50.878;8.050;2023-08-06T14:36:36;3.78;;;1.90;;
79670;SDS011;69137;50.878;8.050;2023-08-06T14:39:01;2.75;;;1.90;;
79670;SDS011;69137;50.878;8.050;2023-08-06T14:41:26;4.50;;;1.95;;
79670;SDS011;69137;50.878;8.050;2023-08-06T14:43:52;2.45;;;1.77;;
79670;SDS011;69137;50.878;8.050;2023-08-06T14:46:18;3.45;;;2.15;;
79670;SDS011;69137;50.878;8.050;2023-08-06T14:48:44;4.22;;;2.20;;
79670;SDS011;69137;50.878;8.050;2023-08-06T14:51:09;4.13;;;2.33;;
79670;SDS011;69137;50.878;8.050;2023-08-06T14:53:35;3.63;;;1.92;;
79670;SDS011;69137;50.878;8.050;2023-08-06T14:56:00;2.97;;;1.85;;
79670;SDS011;69137;50.878;8.050;2023-08-06T14:58:25;3.13;;;2.15;;
79670;SDS011;69137;50.878;8.050;2023-08-06T15:00:52;3.13;;;1.92;;
79670;SDS011;69137;50.878;8.050;2023-08-06T15:03:17;3.47;;;2.28;;
79670;SDS011;69137;50.878;8.050;2023-08-06T15:05:43;2.88;;;2.08;;